SVPL1: Red River at Shreveport Site 2

                                SHEF ID:       SVPL1     Red River at Shreveport Site 2
STATION TYPE:

PRECIP STAGE RIV-FLOW VOLTAGE
in ft cfs volt
Ccp-Rev Ccp-Rev Ccp-Rev Ccp-Rev
(America/Chicago)
06/28 00:00 0.00 25.66 84600 12.82
06/28 01:00 0.00 25.66 84600 12.80
06/28 02:00 0.00 25.64 84400 12.80
06/28 03:00 0.00 25.62 84200 12.77
06/28 04:00 0.00 25.63 84300 12.77
06/28 05:00 0.00 25.65 84500 12.75
06/28 06:00 0.00 25.64 84400 12.76
06/28 07:00 0.00 25.56 83600 12.83
06/28 08:00 0.00 25.50 83000 13.00
06/28 09:00 0.00 25.45 82500 13.28
06/28 10:00 0.00 25.35 81500 13.07
06/28 11:00 0.00 25.34 81400 13.06
06/28 12:00 0.00 25.37 81700 13.06
06/28 13:00 0.00 25.31 81100 13.08
06/28 14:00 0.00 25.26 80600 13.09
06/28 15:00 0.00 25.24 80400 13.07
06/28 16:00 0.00 25.26 80600 13.07
06/28 17:00 0.00 25.14 79400 13.09
06/28 18:00 0.00 25.09 78900 13.06
06/28 19:00 0.00 25.01 78100 12.91
06/28 20:00 0.00 25.01 78100 12.87
06/28 21:00 0.00 24.86 76880 12.86
06/28 22:00 0.00 24.83 76640 12.85
06/28 23:00 0.00 24.86 76880 12.86
Data processed at Mon 29Jun2026 04:24 GMT

NOTICE: If you are parsing this page

Please convert to using our Data API. Starting early 2026 we will be migrating to: https://water.usace.army.mil with modern pages rendered in JavaScript. When this migration completes you will no longer be able to scrape this page! CWMSDataAPI (CDA)

Timeseries IDs (TSIDs)

TSIDs used from left to right in the data table
SHRE.Precip-Inc.Total.1Hour.1Hour.Ccp-Rev
SHRE.Stage.Inst.1Hour.0.Ccp-Rev
SHRE.Flow.Inst.1Hour.0.Ccp-Rev
SHRE.Volt-Battery.Inst.1Hour.0.Ccp-Rev

                            

All information presented herein is the property of the government of the United States of America and may be revised or deleted at any time without prior notice. Dissemination of this information without the expressed written consent of the Public Affairs Office, Tulsa District U.S. Army Corps of Engineers is strictly prohibited. These data are gathered electronically and, as presented, have NOT undergone any form of quality control. These data are NOT guaranteed to be valid or correct.